Pagrindinis puslapis
METAR-TAF:

METAR-TAF

Oro uostai :

Umeo, Švedija

platuma: 63-48N, ilguma: 020-17E, Aukštis: 7 m

Dabartinis oras

Ataskaita buvo paskelbta 32 minutes, ne 11:50 UTC
Vėjas 8 kt iš Pietryčių
Temperatūra 21°C
Drėgmė 40%
Slėgis 1025 hPa
Matomumas 10 km arba daugiau
nėra debesų žemiau 1500 m ir nėra kamuolinių lietaus debesų

METAR: ESNU 011150Z 13008KT CAVOK 21/07 Q1025

Laikas: 14:22 (12:22 UTC)

Prognozė

Ataskaita buvo paskelbta 52 minutes, ne 11:30 UTC
Prognozė galioja nuo 01 metu 12 UTC su 01 metu 21 UTC
Vėjas 10 kt iš Pietryčių
Matomumas 10 km arba daugiau
nėra debesų žemiau 1500 m ir nėra kamuolinių lietaus debesų
Tapsmas
nuo 01 metu 18 UTC su 01 metu 20 UTC
Vėjas 2 kt nuo kintamojo kryptimis

TAF: ESNU 011130Z 0112/0121 14010KT CAVOK BECMG 0118/0120 VRB02KT

Orai ataskaitas ir orų prognozės (METAR, TAF).

turimą stotys yra geltonos ir raudonos taškus žemėlapyje.

Perkelti pele per norėdami pamatyti stoties vardą.

Tada spustelėkite, norėdami matyti oro stebėjimo ir prognozės.

Norėdami pakeisti žemėlapį: spustelėkite ant žalios mygtukų su juodo kryžiaus žemyn,; žalią mygtuką su brūkšneliu, jei norite nutolinti; arba žalių rodyklių gretimoms žemėlapius.


METAR-TAF: